aviador You're here:

ZYTX Decoded Metar

SHENYANG/TAOKIAN in CHINA
Report Time2017-04-30 14:30:00
UTC Time2017-04-30 14:55:04
Flight Rules vfr VFR
Wind040° at 6 kt
W.Decomp.*RWY 06: 5.9 kt HW 1.2 kt LCW
W.Rank040° ranks 12
Current wind is below 040° avg. (6.4)
Visibility9999 m
Phenomena:N/A
Clouds:N/A
Expected CloudBase > 5,600 ft AGL from Temp-Dew spread
CeilingNone
Temp11°C (ISA -4)
Dew Point-3°C (38% RH)
AAT6.5°C
QNH1015 hPa
Density Alt-331 ft
Elevation115 ft
Report Wrong Elevation
Raw Report
METAR ZYTX 301430Z 04003MPS CAVOK 11/M03 Q1015 NOSIG=####018000096####
SAIN90 VANP 301430

Extra information for ZYTX:More info

Metar Taf Metar & Taf Last 4 Metars F.Rules Stats Wind Profile Meteogram Temp Stats Airport Information Weather charts Add Link Nearby VenuesMetar ALERT Operation Metar Decoded Social comments